Latest Weather Observations for Gold Coast Seaway

IDQ60801

Issued at 8:02 am EST Tuesday 28 April 2015 (issued every 30 minutes, with the page automatically refreshed every 10 minutes)

About weather observations | Map of weather stations | Latest weather observations for QLD | Other Formats
Station Details ID: 040764 Name: GOLD COAST SEAWAY Lat: -27.94 Lon: 153.43 Height: 2.98 m
Data from the previous 72 hours. | See also: Recent months at Gold Coast Seaway
Date/Time
EST
Temp
°C
App
Temp
°C
Dew
Point
Rel
Hum
%
Delta-T
°C
Wind Press
QNH
hPa
Press
MSL
hPa
Rain
since 9 am
mm
Dir
 
Spd
km/h
Gust
km/h
Spd
kts
Gust
kts
28/08:00am 19.8 17.2 12.1 61 4.3 S 17 24 9 13 1021.8 1021.8 0.0
28/07:30am 18.5 16.2 11.8 65 3.7 SSW 15 19 8 10 1021.4 1021.4 0.0
28/07:00am 17.4 16.0 12.3 72 2.8 SSW 11 17 6 9 1021.2 1021.2 0.0
28/06:30am 16.6 14.7 11.9 74 2.6 SSW 13 19 7 10 1020.8 1020.8 0.0
28/06:00am 16.7 14.4 11.8 73 2.7 S 15 19 8 10 1020.5 1020.5 0.0
28/05:30am 16.6 14.9 12.6 77 2.2 SSW 13 19 7 10 1020.1 1020.1 0.0
28/05:00am 16.3 14.0 11.9 75 2.4 S 15 19 8 10 1019.7 1019.7 0.0
28/04:30am 16.7 14.2 12.3 75 2.4 SSW 17 22 9 12 1019.3 1019.3 0.0
28/04:00am 16.5 14.8 12.5 77 2.2 SSW 13 17 7 9 1019.1 1019.1 0.0
28/03:30am 16.6 15.4 12.8 78 2.1 SSW 11 15 6 8 1019.1 1019.1 0.0
28/03:00am 16.9 15.7 12.8 77 2.3 SW 11 15 6 8 1018.9 1018.9 0.0
28/02:30am 16.9 15.7 12.8 77 2.3 SSW 11 15 6 8 1018.9 1018.9 0.0
28/02:00am 16.8 15.6 12.7 77 2.3 SW 11 15 6 8 1019.1 1019.1 0.0
28/01:30am 16.9 15.8 13.0 78 2.2 SW 11 15 6 8 1019.3 1019.3 0.0
28/01:00am 16.8 15.9 12.7 77 2.3 SW 9 13 5 7 1019.3 1019.3 0.0
28/12:30am 17.0 15.8 12.7 76 2.4 SW 11 15 6 8 1019.4 1019.4 0.0
28/12:00am 17.5 16.0 13.0 75 2.5 SSW 13 17 7 9 1019.2 1019.2 0.0
 
Date/Time
EST
Temp
°C
App
Temp
°C
Dew
Point
Rel
Hum
%
Delta-T
°C
Wind Press
QNH
hPa
Press
MSL
hPa
Rain
since 9 am
mm
Dir
 
Spd
km/h
Gust
km/h
Spd
kts
Gust
kts
27/11:30pm 17.4 15.8 12.9 75 2.5 SW 13 17 7 9 1019.3 1019.3 0.0
27/11:00pm 17.3 16.2 13.0 76 2.4 SW 11 15 6 8 1019.4 1019.4 0.0
27/10:30pm 17.5 16.3 12.8 74 2.6 SW 11 17 6 9 1019.6 1019.6 0.0
27/10:00pm 17.4 16.1 12.5 73 2.7 SSW 11 15 6 8 1019.6 1019.6 0.0
27/09:30pm 17.8 16.8 12.3 70 3.0 SW 9 13 5 7 1019.6 1019.6 0.0
27/09:00pm 18.1 16.5 11.7 66 3.5 SSW 11 19 6 10 1019.4 1019.4 0.0
27/08:30pm 18.3 16.3 11.4 64 3.8 SSW 13 19 7 10 1019.2 1019.2 0.0
27/08:00pm 18.6 16.7 11.7 64 3.8 SSW 13 19 7 10 1019.1 1019.1 0.0
27/07:30pm 19.0 17.0 11.6 62 4.1 SSW 13 19 7 10 1018.8 1018.8 0.0
27/07:00pm 19.8 16.3 12.3 62 4.2 S 22 28 12 15 1018.4 1018.4 0.0
27/06:30pm 20.5 16.9 13.2 63 4.2 SSE 24 30 13 16 1017.7 1017.7 0.0
27/06:00pm 20.7 17.4 12.9 61 4.4 SSE 22 30 12 16 1017.3 1017.3 0.0
27/05:30pm 20.9 17.4 13.4 62 4.3 SSE 24 30 13 16 1017.1 1017.1 0.0
27/05:00pm 21.3 18.2 13.5 61 4.5 SE 22 28 12 15 1016.8 1016.8 0.0
27/04:30pm 21.8 19.1 12.9 57 5.1 SE 19 26 10 14 1016.6 1016.6 0.0
27/04:00pm 22.9 20.2 12.8 53 5.8 SE 19 22 10 12 1016.3 1016.3 0.0
27/03:30pm 23.6 21.3 12.9 51 6.2 ESE 17 19 9 10 1016.0 1016.0 0.0
27/03:00pm 24.0 22.1 11.7 46 6.9 E 13 19 7 10 1015.9 1015.9 0.0
27/02:30pm 24.2 22.5 12.5 48 6.7 E 13 17 7 9 1015.9 1015.9 0.0
27/02:00pm 24.4 22.1 11.7 45 7.2 E 15 20 8 11 1015.8 1015.8 0.0
27/01:30pm 24.6 22.5 11.2 43 7.5 E 13 15 7 8 1015.8 1015.8 0.0
27/01:00pm 24.8 22.9 11.7 44 7.4 E 13 17 7 9 1015.9 1015.9 0.0
27/12:30pm 24.2 22.5 11.2 44 7.3 E 11 15 6 8 1016.2 1016.2 0.0
27/12:00pm 24.2 22.8 10.8 43 7.4 E 9 13 5 7 1016.5 1016.5 0.0
27/11:30am 23.6 21.8 9.6 41 7.6 ESE 9 13 5 7 1016.8 1016.8 0.0
27/11:00am 23.8 21.9 10.5 43 7.3 ESE 11 15 6 8 1017.2 1017.2 0.0
27/10:30am 23.0 21.4 10.1 44 7.0 E 9 11 5 6 1017.5 1017.5 0.0
27/10:00am 22.0 20.3 8.5 42 7.1 NW 7 9 4 5 1017.7 1017.7 0.0
27/09:30am 21.0 19.0 10.2 50 5.8 NW 11 15 6 8 1017.8 1017.8 0.0
27/09:00am 19.8 17.3 9.7 52 5.4 NW 13 15 7 8 1017.7 1017.7 -
27/08:30am 18.8 16.3 9.6 55 4.9 NW 13 15 7 8 1017.7 1017.7 -
27/08:00am 17.5 14.3 8.6 56 4.6 WNW 15 17 8 9 1017.3 1017.3 -
27/07:30am 16.3 12.8 8.8 61 3.8 WNW 17 19 9 10 1017.0 1017.0 -
27/07:00am 15.6 12.9 8.8 64 3.5 NW 13 17 7 9 1016.8 1016.8 -
27/06:30am 15.0 12.3 9.1 68 3.0 NW 13 15 7 8 1016.4 1016.4 -
27/06:00am 14.9 12.0 8.2 64 3.4 WNW 13 15 7 8 1016.0 1016.0 -
27/05:30am 14.5 11.9 7.8 64 3.3 WNW 11 13 6 7 1015.5 1015.5 -
27/05:00am 14.5 11.5 7.8 64 3.3 W 13 13 7 7 1015.0 1015.0 -
27/04:30am 15.0 12.7 7.5 61 3.7 NNW 9 11 5 6 1014.9 1014.9 -
27/04:00am 14.8 12.2 7.6 62 3.6 WNW 11 15 6 8 1014.7 1014.7 -
27/03:30am 15.4 12.3 7.2 58 4.0 WNW 13 15 7 8 1014.5 1014.5 -
27/03:00am 15.1 12.4 7.4 60 3.8 WNW 11 15 6 8 1014.4 1014.4 -
27/02:30am 15.4 12.7 7.2 58 4.0 WSW 11 15 6 8 1014.3 1014.3 -
27/02:00am 15.8 13.4 6.8 55 4.4 SW 9 13 5 7 1014.2 1014.2 -
27/01:30am 15.6 12.6 6.1 53 4.6 WSW 11 13 6 7 1014.3 1014.3 0.0
27/01:00am 16.2 12.9 6.3 52 4.8 SW 13 17 7 9 1014.4 1014.4 0.0
27/12:30am 16.1 12.1 6.5 53 4.7 W 17 22 9 12 1014.5 1014.5 0.0
27/12:00am 16.4 12.4 6.8 53 4.7 WNW 17 19 9 10 1014.9 1014.9 0.0
 
Date/Time
EST
Temp
°C
App
Temp
°C
Dew
Point
Rel
Hum
%
Delta-T
°C
Wind Press
QNH
hPa
Press
MSL
hPa
Rain
since 9 am
mm
Dir
 
Spd
km/h
Gust
km/h
Spd
kts
Gust
kts
26/11:30pm 16.6 13.2 6.1 50 5.1 W 13 19 7 10 1015.1 1015.1 0.0
26/11:00pm 16.6 12.9 6.4 51 5.0 W 15 20 8 11 1015.3 1015.3 0.0
26/10:30pm 16.7 13.4 6.2 50 5.1 W 13 17 7 9 1015.5 1015.5 0.0
26/10:00pm 17.0 12.8 5.9 48 5.4 W 17 20 9 11 1015.4 1015.4 0.0
26/09:30pm 17.5 13.3 5.8 46 5.7 W 17 24 9 13 1015.2 1015.2 0.0
26/09:00pm 17.8 12.3 5.7 45 5.9 W 24 30 13 16 1015.1 1015.1 0.0
26/08:30pm 18.2 13.4 5.8 44 6.1 WNW 20 32 11 17 1014.9 1014.9 0.0
26/08:00pm 18.4 14.6 5.6 43 6.2 WNW 15 22 8 12 1014.6 1014.6 0.0
26/07:30pm 18.5 13.8 5.0 41 6.5 W 19 28 10 15 1014.1 1014.1 0.0
26/07:00pm 19.0 15.3 4.7 39 6.9 W 13 26 7 14 1013.5 1013.5 0.0
26/06:30pm 19.2 14.8 4.6 38 7.0 W 17 32 9 17 1013.4 1013.4 0.0
26/06:00pm 19.6 14.6 4.5 37 7.3 W 20 30 11 16 1012.8 1012.8 0.0
26/05:30pm 20.1 13.5 4.2 35 7.6 W 28 35 15 19 1012.3 1012.3 0.0
26/05:00pm 20.8 13.8 4.0 33 8.1 W 30 39 16 21 1011.6 1011.6 0.0
26/04:34pm 21.8 15.2 4.4 32 8.5 WSW 28 50 15 27 1011.0 1011.0 0.0
26/04:30pm 21.9 16.0 4.0 31 8.7 WSW 24 39 13 21 1011.0 1011.0 0.0
26/04:00pm 22.6 17.6 3.7 29 9.2 WSW 19 30 10 16 1010.6 1010.6 0.0
26/03:30pm 23.1 17.5 3.6 28 9.5 W 22 39 12 21 1010.1 1010.1 0.0
26/03:00pm 23.5 19.1 4.5 29 9.4 WSW 17 30 9 16 1009.8 1009.8 0.0
26/02:30pm 23.5 16.5 4.0 28 9.6 W 30 41 16 22 1009.0 1009.0 0.0
26/02:00pm 24.2 18.4 4.6 28 9.8 W 24 35 13 19 1009.0 1009.0 0.0
26/01:30pm 23.6 16.3 4.5 29 9.5 W 32 39 17 21 1008.8 1008.8 0.0
26/01:00pm 23.0 15.4 3.0 27 9.6 W 32 43 17 23 1009.1 1009.1 0.0
26/12:30pm 22.8 15.6 2.8 27 9.5 W 30 37 16 20 1009.2 1009.2 0.0
26/12:00pm 22.5 17.5 3.6 29 9.1 W 19 30 10 16 1009.2 1009.2 0.0
26/11:30am 22.0 16.4 3.2 29 9.0 WSW 22 39 12 21 1009.8 1009.8 0.0
26/11:12am 21.9 14.1 3.1 29 9.0 W 33 52 18 28 1009.8 1009.8 0.0
26/11:00am 21.4 11.6 3.1 30 8.7 W 44 56 24 30 1009.4 1009.4 0.0
26/10:30am 21.4 14.0 4.0 32 8.4 W 32 43 17 23 1009.8 1009.8 0.0
26/10:00am 20.9 13.4 3.6 32 8.3 W 32 52 17 28 1009.8 1009.8 0.0
26/09:39am 20.8 14.2 4.0 33 8.1 WNW 28 48 15 26 1010.4 1010.4 0.0
26/09:30am 20.8 14.9 4.0 33 8.1 WNW 24 35 13 19 1010.5 1010.5 0.0
26/09:00am 20.1 13.4 3.8 34 7.8 W 28 43 15 23 1010.9 1010.9 0.0
26/08:30am 19.8 13.1 3.9 35 7.6 W 28 44 15 24 1011.0 1011.0 0.0
26/08:00am 19.5 13.2 3.6 35 7.5 W 26 37 14 20 1010.8 1010.8 0.0
26/07:30am 19.1 11.6 4.5 38 7.0 W 33 39 18 21 1010.5 1010.5 0.0
26/07:00am 18.7 11.4 4.5 39 6.8 W 32 37 17 20 1010.3 1010.3 0.0
26/06:30am 18.7 11.4 4.5 39 6.8 WNW 32 37 17 20 1009.8 1009.8 0.0
26/06:00am 18.6 12.5 4.8 40 6.6 W 26 33 14 18 1009.5 1009.5 0.0
26/05:30am 19.7 13.0 3.8 35 7.6 W 28 37 15 20 1009.2 1009.2 0.0
26/05:00am 19.8 13.8 5.5 39 7.0 WNW 26 32 14 17 1008.8 1008.8 0.0
26/04:30am 19.9 13.4 6.3 41 6.8 WNW 30 35 16 19 1008.6 1008.6 0.0
26/04:00am 20.4 15.2 7.4 43 6.7 WNW 24 28 13 15 1008.5 1008.5 0.0
26/03:30am 20.6 15.0 8.9 47 6.2 WNW 28 33 15 18 1008.2 1008.2 0.0
26/03:00am 20.2 16.8 11.4 57 4.9 WNW 20 22 11 12 1008.0 1008.0 0.0
26/02:30am 20.3 17.4 12.3 60 4.5 WNW 19 20 10 11 1008.0 1008.0 0.0
26/02:00am 16.5 15.6 14.9 90 0.9 W 13 17 7 9 1007.9 1007.9 0.0
26/01:30am 16.0 16.0 13.5 85 1.4 WSW 6 7 3 4 1008.0 1008.0 0.0
26/01:00am 16.5 16.5 13.6 83 1.6 WSW 6 7 3 4 1008.1 1008.1 0.0
26/12:30am 17.5 17.4 14.0 80 2.0 WSW 7 9 4 5 1008.4 1008.4 0.0
26/12:00am 17.8 17.7 13.9 78 2.2 WSW 7 11 4 6 1008.5 1008.5 0.0
 
Date/Time
EST
Temp
°C
App
Temp
°C
Dew
Point
Rel
Hum
%
Delta-T
°C
Wind Press
QNH
hPa
Press
MSL
hPa
Rain
since 9 am
mm
Dir
 
Spd
km/h
Gust
km/h
Spd
kts
Gust
kts
25/11:30pm 19.2 19.3 15.5 79 2.2 WNW 9 11 5 6 1008.7 1008.7 0.0
25/11:00pm 18.8 19.1 14.9 78 2.3 W 7 7 4 4 1008.8 1008.8 0.0
25/10:30pm 19.0 19.0 15.1 78 2.3 WNW 9 9 5 5 1009.1 1009.1 0.0
25/10:00pm 18.5 17.8 13.1 71 3.0 NW 9 9 5 5 1009.3 1009.3 0.0
25/09:30pm 20.1 19.5 13.6 66 3.7 WNW 9 11 5 6 1009.4 1009.4 0.0
25/09:00pm 20.9 20.0 13.8 64 4.1 W 11 11 6 6 1009.6 1009.6 0.0
25/08:30pm 21.4 20.5 13.6 61 4.5 W 11 13 6 7 1009.5 1009.5 0.0
25/08:00pm 22.0 20.7 13.6 59 4.9 WNW 13 15 7 8 1009.4 1009.4 0.0
25/07:30pm 22.4 21.4 14.5 61 4.6 NW 13 17 7 9 1009.0 1009.0 0.0
25/07:00pm 22.5 22.5 16.3 68 3.8 NW 11 13 6 7 1008.5 1008.5 0.0
25/06:30pm 23.0 22.9 16.1 65 4.2 NNW 11 15 6 8 1008.2 1008.2 0.0
25/06:00pm 23.3 22.9 15.1 60 4.9 N 11 15 6 8 1007.9 1007.9 0.0
25/05:30pm 24.1 23.6 15.9 60 5.0 NNW 13 19 7 10 1007.6 1007.6 0.0
25/05:00pm 25.0 24.2 16.2 58 5.4 N 15 19 8 10 1007.5 1007.5 0.0
25/04:30pm 27.2 25.2 10.0 34 9.6 N 11 15 6 8 1007.4 1007.4 0.0
25/04:00pm 27.6 25.2 9.9 33 9.9 NW 13 17 7 9 1007.3 1007.3 0.0
25/03:30pm 27.8 25.8 10.1 33 9.9 NW 11 17 6 9 1007.2 1007.2 0.0
25/03:00pm 27.9 25.3 10.6 34 9.8 NW 15 22 8 12 1007.2 1007.2 0.0
25/02:30pm 28.2 25.5 10.4 33 10.0 NW 15 19 8 10 1007.3 1007.3 0.0
25/02:00pm 28.2 25.8 9.9 32 10.3 NW 13 22 7 12 1007.4 1007.4 0.0
25/01:30pm 28.1 24.4 9.4 31 10.4 NW 19 24 10 13 1007.7 1007.7 0.0
25/01:00pm 28.0 24.9 8.8 30 10.6 NW 15 22 8 12 1007.9 1007.9 0.0
25/12:30pm 28.4 26.0 7.1 26 11.4 W 9 11 5 6 1008.1 1008.1 0.0
25/12:00pm 27.8 24.5 8.1 29 10.7 WNW 15 19 8 10 1008.6 1008.6 0.0
25/11:30am 27.5 24.6 11.1 36 9.3 NW 17 22 9 12 1009.1 1009.1 0.0
25/11:00am 27.4 25.1 11.8 38 9.0 WNW 15 19 8 10 1009.6 1009.6 0.0
25/10:30am 26.4 25.5 12.5 42 8.0 NW 9 13 5 7 1009.8 1009.8 0.0
25/10:00am 25.0 24.8 14.8 53 6.1 NW 9 13 5 7 1010.2 1010.2 0.0
25/09:30am 24.5 23.7 15.1 55 5.6 NW 13 13 7 7 1010.5 1010.5 0.0
25/09:00am 23.5 22.5 15.5 60 4.8 NW 15 17 8 9 1010.7 1010.7 0.0
25/08:30am 22.2 21.7 15.8 67 3.8 WNW 13 15 7 8 1010.6 1010.6 0.0

Other Formats:

Comma delimited format used in spreadsheet applications
http://www.bom.gov.au/fwo/IDQ60801/IDQ60801.94580.axf

JavaScript Object Notation format (JSON) in row-major order
http://www.bom.gov.au/fwo/IDQ60801/IDQ60801.94580.json